sensor_id;sensor_type;location;lat;lon;timestamp;temperature;humidity
70246;SHT30;57637;49.272;8.590;2022-10-15T00:00:04;14.99;97.54
70246;SHT30;57637;49.272;8.590;2022-10-15T00:02:31;15.06;97.55
70246;SHT30;57637;49.272;8.590;2022-10-15T00:04:56;15.07;97.56
70246;SHT30;57637;49.272;8.590;2022-10-15T00:07:23;15.06;97.69
70246;SHT30;57637;49.272;8.590;2022-10-15T00:09:48;15.09;97.72
70246;SHT30;57637;49.272;8.590;2022-10-15T00:12:14;15.10;97.76
70246;SHT30;57637;49.272;8.590;2022-10-15T00:14:39;15.13;97.79
70246;SHT30;57637;49.272;8.590;2022-10-15T00:17:05;15.14;97.90
70246;SHT30;57637;49.272;8.590;2022-10-15T00:19:30;15.16;97.85
70246;SHT30;57637;49.272;8.590;2022-10-15T00:21:55;15.17;97.93
70246;SHT30;57637;49.272;8.590;2022-10-15T00:24:21;15.24;97.98
70246;SHT30;57637;49.272;8.590;2022-10-15T00:26:46;15.26;98.05
70246;SHT30;57637;49.272;8.590;2022-10-15T00:29:12;15.26;98.05
70246;SHT30;57637;49.272;8.590;2022-10-15T00:31:37;15.27;98.06
70246;SHT30;57637;49.272;8.590;2022-10-15T00:34:03;15.31;98.08
70246;SHT30;57637;49.272;8.590;2022-10-15T00:36:29;15.33;98.07
70246;SHT30;57637;49.272;8.590;2022-10-15T00:38:56;15.37;98.07
70246;SHT30;57637;49.272;8.590;2022-10-15T00:41:33;15.40;98.08
70246;SHT30;57637;49.272;8.590;2022-10-15T00:46:46;15.46;98.30
70246;SHT30;57637;49.272;8.590;2022-10-15T00:49:32;15.44;98.25
70246;SHT30;57637;49.272;8.590;2022-10-15T00:57:37;15.50;98.30
70246;SHT30;57637;49.272;8.590;2022-10-15T01:00:06;15.51;98.24
70246;SHT30;57637;49.272;8.590;2022-10-15T01:02:34;15.54;98.33
70246;SHT30;57637;49.272;8.590;2022-10-15T01:05:00;15.53;98.28
70246;SHT30;57637;49.272;8.590;2022-10-15T01:07:25;15.57;98.33
70246;SHT30;57637;49.272;8.590;2022-10-15T01:09:50;15.58;98.31
70246;SHT30;57637;49.272;8.590;2022-10-15T01:17:58;15.60;98.39
70246;SHT30;57637;49.272;8.590;2022-10-15T01:29:28;15.61;98.53
70246;SHT30;57637;49.272;8.590;2022-10-15T01:37:50;15.68;98.65
70246;SHT30;57637;49.272;8.590;2022-10-15T01:40:23;15.67;98.61
70246;SHT30;57637;49.272;8.590;2022-10-15T01:42:56;15.68;98.66
70246;SHT30;57637;49.272;8.590;2022-10-15T01:46:05;15.71;98.72
70246;SHT30;57637;49.272;8.590;2022-10-15T01:48:13;15.71;98.68
70246;SHT30;57637;49.272;8.590;2022-10-15T01:50:43;15.70;98.73
70246;SHT30;57637;49.272;8.590;2022-10-15T01:53:12;15.72;98.76
70246;SHT30;57637;49.272;8.590;2022-10-15T01:55:41;15.75;98.77
70246;SHT30;57637;49.272;8.590;2022-10-15T01:58:09;15.77;98.83
70246;SHT30;57637;49.272;8.590;2022-10-15T02:00:37;15.75;98.77
70246;SHT30;57637;49.272;8.590;2022-10-15T02:03:03;15.78;98.81
70246;SHT30;57637;49.272;8.590;2022-10-15T02:05:31;15.75;98.79
70246;SHT30;57637;49.272;8.590;2022-10-15T02:08:06;15.77;98.83
70246;SHT30;57637;49.272;8.590;2022-10-15T02:13:23;15.80;98.83
70246;SHT30;57637;49.272;8.590;2022-10-15T02:18:50;15.81;98.82
70246;SHT30;57637;49.272;8.590;2022-10-15T02:24:16;15.82;98.83
70246;SHT30;57637;49.272;8.590;2022-10-15T02:26:57;15.81;98.84
70246;SHT30;57637;49.272;8.590;2022-10-15T02:29:26;15.80;98.80
70246;SHT30;57637;49.272;8.590;2022-10-15T02:31:57;15.82;98.84
70246;SHT30;57637;49.272;8.590;2022-10-15T02:34:26;15.84;98.83
70246;SHT30;57637;49.272;8.590;2022-10-15T02:36:54;15.84;98.82
70246;SHT30;57637;49.272;8.590;2022-10-15T02:39:22;15.82;98.85
70246;SHT30;57637;49.272;8.590;2022-10-15T02:41:49;15.85;98.85
70246;SHT30;57637;49.272;8.590;2022-10-15T02:44:16;15.84;98.83
70246;SHT30;57637;49.272;8.590;2022-10-15T02:46:42;15.87;98.83
70246;SHT30;57637;49.272;8.590;2022-10-15T02:49:07;15.87;98.84
70246;SHT30;57637;49.272;8.590;2022-10-15T02:51:33;15.87;98.83
70246;SHT30;57637;49.272;8.590;2022-10-15T02:53:59;15.88;98.86
70246;SHT30;57637;49.272;8.590;2022-10-15T02:56:26;15.91;98.87
70246;SHT30;57637;49.272;8.590;2022-10-15T02:58:52;15.90;98.86
70246;SHT30;57637;49.272;8.590;2022-10-15T03:01:18;15.91;98.92
70246;SHT30;57637;49.272;8.590;2022-10-15T03:03:43;15.92;98.86
70246;SHT30;57637;49.272;8.590;2022-10-15T03:06:09;15.91;98.94
70246;SHT30;57637;49.272;8.590;2022-10-15T03:08:34;15.91;98.94
70246;SHT30;57637;49.272;8.590;2022-10-15T03:11:00;15.91;98.94
70246;SHT30;57637;49.272;8.590;2022-10-15T03:13:25;15.90;98.97
70246;SHT30;57637;49.272;8.590;2022-10-15T03:15:51;15.91;99.02
70246;SHT30;57637;49.272;8.590;2022-10-15T03:18:17;15.94;99.02
70246;SHT30;57637;49.272;8.590;2022-10-15T03:20:42;15.92;99.04
70246;SHT30;57637;49.272;8.590;2022-10-15T03:23:08;15.94;99.07
70246;SHT30;57637;49.272;8.590;2022-10-15T03:25:33;15.94;99.05
70246;SHT30;57637;49.272;8.590;2022-10-15T03:27:59;15.95;99.10
70246;SHT30;57637;49.272;8.590;2022-10-15T03:30:24;15.94;99.05
70246;SHT30;57637;49.272;8.590;2022-10-15T03:32:49;15.94;99.05
70246;SHT30;57637;49.272;8.590;2022-10-15T03:35:15;15.97;99.11
70246;SHT30;57637;49.272;8.590;2022-10-15T03:37:40;15.98;99.13
70246;SHT30;57637;49.272;8.590;2022-10-15T03:40:06;15.94;99.09
70246;SHT30;57637;49.272;8.590;2022-10-15T03:42:32;15.97;99.11
70246;SHT30;57637;49.272;8.590;2022-10-15T03:44:57;15.98;99.11
70246;SHT30;57637;49.272;8.590;2022-10-15T03:47:22;15.97;99.08
70246;SHT30;57637;49.272;8.590;2022-10-15T03:49:48;15.97;99.09
70246;SHT30;57637;49.272;8.590;2022-10-15T03:52:13;16.01;99.12
70246;SHT30;57637;49.272;8.590;2022-10-15T03:54:39;16.01;99.12
70246;SHT30;57637;49.272;8.590;2022-10-15T03:57:05;16.01;99.12
70246;SHT30;57637;49.272;8.590;2022-10-15T03:59:30;16.01;99.15
70246;SHT30;57637;49.272;8.590;2022-10-15T04:01:56;16.02;99.15
70246;SHT30;57637;49.272;8.590;2022-10-15T04:04:22;16.02;99.12
70246;SHT30;57637;49.272;8.590;2022-10-15T04:06:47;16.01;99.10
70246;SHT30;57637;49.272;8.590;2022-10-15T04:09:13;16.00;99.16
70246;SHT30;57637;49.272;8.590;2022-10-15T04:11:39;16.02;99.15
70246;SHT30;57637;49.272;8.590;2022-10-15T04:14:05;16.02;99.12
70246;SHT30;57637;49.272;8.590;2022-10-15T04:16:31;16.01;99.15
70246;SHT30;57637;49.272;8.590;2022-10-15T04:18:57;16.02;99.19
70246;SHT30;57637;49.272;8.590;2022-10-15T04:21:23;16.04;99.18
70246;SHT30;57637;49.272;8.590;2022-10-15T04:23:49;16.04;99.20
70246;SHT30;57637;49.272;8.590;2022-10-15T04:26:15;16.02;99.19
70246;SHT30;57637;49.272;8.590;2022-10-15T04:28:40;16.02;99.24
70246;SHT30;57637;49.272;8.590;2022-10-15T04:31:05;16.02;99.16
70246;SHT30;57637;49.272;8.590;2022-10-15T04:33:31;16.02;99.23
70246;SHT30;57637;49.272;8.590;2022-10-15T04:36:03;16.02;99.16
70246;SHT30;57637;49.272;8.590;2022-10-15T04:38:31;16.04;99.23
70246;SHT30;57637;49.272;8.590;2022-10-15T04:40:57;16.02;99.25
70246;SHT30;57637;49.272;8.590;2022-10-15T04:43:25;16.02;99.21
70246;SHT30;57637;49.272;8.590;2022-10-15T04:45:54;16.02;99.23
70246;SHT30;57637;49.272;8.590;2022-10-15T04:48:20;16.02;99.22
70246;SHT30;57637;49.272;8.590;2022-10-15T04:50:45;16.01;99.23
70246;SHT30;57637;49.272;8.590;2022-10-15T04:53:13;16.02;99.25
70246;SHT30;57637;49.272;8.590;2022-10-15T04:55:39;16.01;99.24
70246;SHT30;57637;49.272;8.590;2022-10-15T04:58:04;16.02;99.23
70246;SHT30;57637;49.272;8.590;2022-10-15T05:00:29;16.01;99.23
70246;SHT30;57637;49.272;8.590;2022-10-15T05:02:55;16.00;99.24
70246;SHT30;57637;49.272;8.590;2022-10-15T05:05:20;16.01;99.24
70246;SHT30;57637;49.272;8.590;2022-10-15T05:07:46;16.01;99.24
70246;SHT30;57637;49.272;8.590;2022-10-15T05:10:11;16.01;99.27
70246;SHT30;57637;49.272;8.590;2022-10-15T05:12:36;16.01;99.25
70246;SHT30;57637;49.272;8.590;2022-10-15T05:15:02;16.01;99.28
70246;SHT30;57637;49.272;8.590;2022-10-15T05:17:28;16.01;99.26
70246;SHT30;57637;49.272;8.590;2022-10-15T05:19:54;16.00;99.35
70246;SHT30;57637;49.272;8.590;2022-10-15T05:22:19;16.00;99.32
70246;SHT30;57637;49.272;8.590;2022-10-15T05:24:45;16.00;99.35
70246;SHT30;57637;49.272;8.590;2022-10-15T05:27:10;15.98;99.35
70246;SHT30;57637;49.272;8.590;2022-10-15T05:29:36;15.97;99.31
70246;SHT30;57637;49.272;8.590;2022-10-15T05:32:02;15.97;99.32
70246;SHT30;57637;49.272;8.590;2022-10-15T05:34:27;15.97;99.24
70246;SHT30;57637;49.272;8.590;2022-10-15T05:36:54;15.95;99.24
70246;SHT30;57637;49.272;8.590;2022-10-15T05:39:20;15.97;99.27
70246;SHT30;57637;49.272;8.590;2022-10-15T05:41:45;15.95;99.27
70246;SHT30;57637;49.272;8.590;2022-10-15T05:44:11;15.97;99.24
70246;SHT30;57637;49.272;8.590;2022-10-15T05:46:36;15.95;99.25
70246;SHT30;57637;49.272;8.590;2022-10-15T05:49:02;15.92;99.22
70246;SHT30;57637;49.272;8.590;2022-10-15T05:51:27;15.97;99.20
70246;SHT30;57637;49.272;8.590;2022-10-15T05:53:53;15.97;99.16
70246;SHT30;57637;49.272;8.590;2022-10-15T05:56:19;15.98;99.20
70246;SHT30;57637;49.272;8.590;2022-10-15T05:58:45;16.00;99.13
70246;SHT30;57637;49.272;8.590;2022-10-15T06:01:11;16.01;99.05
70246;SHT30;57637;49.272;8.590;2022-10-15T06:03:38;16.02;98.97
70246;SHT30;57637;49.272;8.590;2022-10-15T06:06:04;16.00;98.93
70246;SHT30;57637;49.272;8.590;2022-10-15T06:08:38;15.98;98.88
70246;SHT30;57637;49.272;8.590;2022-10-15T06:11:03;15.97;98.81
70246;SHT30;57637;49.272;8.590;2022-10-15T06:13:29;16.00;98.88
70246;SHT30;57637;49.272;8.590;2022-10-15T06:15:54;15.95;98.78
70246;SHT30;57637;49.272;8.590;2022-10-15T06:18:19;15.97;98.74
70246;SHT30;57637;49.272;8.590;2022-10-15T06:20:49;15.97;98.70
70246;SHT30;57637;49.272;8.590;2022-10-15T06:23:18;15.98;98.75
70246;SHT30;57637;49.272;8.590;2022-10-15T06:25:44;15.95;98.66
70246;SHT30;57637;49.272;8.590;2022-10-15T06:28:10;15.98;98.57
70246;SHT30;57637;49.272;8.590;2022-10-15T06:30:35;15.95;98.51
70246;SHT30;57637;49.272;8.590;2022-10-15T06:33:01;15.95;98.44
70246;SHT30;57637;49.272;8.590;2022-10-15T06:35:27;15.97;98.46
70246;SHT30;57637;49.272;8.590;2022-10-15T06:38:01;16.00;98.43
70246;SHT30;57637;49.272;8.590;2022-10-15T06:40:27;16.04;98.34
70246;SHT30;57637;49.272;8.590;2022-10-15T06:42:53;16.04;98.36
70246;SHT30;57637;49.272;8.590;2022-10-15T06:45:18;16.08;98.27
70246;SHT30;57637;49.272;8.590;2022-10-15T06:47:44;16.11;98.22
70246;SHT30;57637;49.272;8.590;2022-10-15T06:50:09;16.12;98.27
70246;SHT30;57637;49.272;8.590;2022-10-15T06:52:35;16.15;98.20
70246;SHT30;57637;49.272;8.590;2022-10-15T06:55:00;16.16;98.12
70246;SHT30;57637;49.272;8.590;2022-10-15T06:57:26;16.15;98.08
70246;SHT30;57637;49.272;8.590;2022-10-15T06:59:51;16.13;98.03
70246;SHT30;57637;49.272;8.590;2022-10-15T07:02:17;16.18;98.10
70246;SHT30;57637;49.272;8.590;2022-10-15T07:04:43;16.21;98.00
70246;SHT30;57637;49.272;8.590;2022-10-15T07:07:09;16.21;97.90
70246;SHT30;57637;49.272;8.590;2022-10-15T07:09:35;16.19;97.91
70246;SHT30;57637;49.272;8.590;2022-10-15T07:12:00;16.25;97.91
70246;SHT30;57637;49.272;8.590;2022-10-15T07:14:26;16.26;97.84
70246;SHT30;57637;49.272;8.590;2022-10-15T07:16:51;16.26;97.76
70246;SHT30;57637;49.272;8.590;2022-10-15T07:19:17;16.29;97.71
70246;SHT30;57637;49.272;8.590;2022-10-15T07:21:42;16.32;97.61
70246;SHT30;57637;49.272;8.590;2022-10-15T07:24:07;16.32;97.57
70246;SHT30;57637;49.272;8.590;2022-10-15T07:26:33;16.33;97.46
70246;SHT30;57637;49.272;8.590;2022-10-15T07:28:59;16.33;97.46
70246;SHT30;57637;49.272;8.590;2022-10-15T07:31:24;16.30;97.48
70246;SHT30;57637;49.272;8.590;2022-10-15T07:33:50;16.29;97.38
70246;SHT30;57637;49.272;8.590;2022-10-15T07:36:15;16.26;97.22
70246;SHT30;57637;49.272;8.590;2022-10-15T07:38:41;16.25;97.32
70246;SHT30;57637;49.272;8.590;2022-10-15T07:41:07;16.28;97.36
70246;SHT30;57637;49.272;8.590;2022-10-15T07:43:34;16.29;97.22
70246;SHT30;57637;49.272;8.590;2022-10-15T07:46:01;16.32;97.20
70246;SHT30;57637;49.272;8.590;2022-10-15T07:48:27;16.33;97.06
70246;SHT30;57637;49.272;8.590;2022-10-15T07:50:53;16.39;97.06
70246;SHT30;57637;49.272;8.590;2022-10-15T07:53:20;16.41;96.91
70246;SHT30;57637;49.272;8.590;2022-10-15T07:55:45;16.51;96.78
70246;SHT30;57637;49.272;8.590;2022-10-15T07:58:11;16.55;96.59
70246;SHT30;57637;49.272;8.590;2022-10-15T08:00:36;16.63;96.38
70246;SHT30;57637;49.272;8.590;2022-10-15T08:03:01;16.74;96.29
70246;SHT30;57637;49.272;8.590;2022-10-15T08:05:27;16.76;96.01
70246;SHT30;57637;49.272;8.590;2022-10-15T08:07:53;16.76;95.83
70246;SHT30;57637;49.272;8.590;2022-10-15T08:10:18;16.74;95.79
70246;SHT30;57637;49.272;8.590;2022-10-15T08:12:43;16.79;95.89
70246;SHT30;57637;49.272;8.590;2022-10-15T08:15:09;16.72;95.49
70246;SHT30;57637;49.272;8.590;2022-10-15T08:17:35;16.74;95.69
70246;SHT30;57637;49.272;8.590;2022-10-15T08:20:01;16.81;95.79
70246;SHT30;57637;49.272;8.590;2022-10-15T08:22:28;16.84;95.61
70246;SHT30;57637;49.272;8.590;2022-10-15T08:24:54;16.79;95.26
70246;SHT30;57637;49.272;8.590;2022-10-15T08:27:19;16.80;95.47
70246;SHT30;57637;49.272;8.590;2022-10-15T08:29:45;16.79;95.25
70246;SHT30;57637;49.272;8.590;2022-10-15T08:32:11;16.73;95.45
70246;SHT30;57637;49.272;8.590;2022-10-15T08:34:36;16.74;95.26
70246;SHT30;57637;49.272;8.590;2022-10-15T08:37:02;16.74;95.42
70246;SHT30;57637;49.272;8.590;2022-10-15T08:39:28;16.69;95.49
70246;SHT30;57637;49.272;8.590;2022-10-15T08:42:13;16.69;95.50
70246;SHT30;57637;49.272;8.590;2022-10-15T08:44:52;16.79;95.88
70246;SHT30;57637;49.272;8.590;2022-10-15T08:52:48;17.14;95.10
70246;SHT30;57637;49.272;8.590;2022-10-15T08:55:15;17.27;94.94
70246;SHT30;57637;49.272;8.590;2022-10-15T08:57:55;17.31;94.49
70246;SHT30;57637;49.272;8.590;2022-10-15T09:00:28;17.41;94.34
70246;SHT30;57637;49.272;8.590;2022-10-15T09:08:58;17.48;93.80
70246;SHT30;57637;49.272;8.590;2022-10-15T09:14:26;17.68;93.62
70246;SHT30;57637;49.272;8.590;2022-10-15T09:16:55;17.68;93.09
70246;SHT30;57637;49.272;8.590;2022-10-15T09:19:25;17.61;93.72
70246;SHT30;57637;49.272;8.590;2022-10-15T09:21:53;17.61;93.33
70246;SHT30;57637;49.272;8.590;2022-10-15T09:24:24;17.68;93.58
70246;SHT30;57637;49.272;8.590;2022-10-15T09:34:42;17.64;93.42
70246;SHT30;57637;49.272;8.590;2022-10-15T09:37:18;17.69;93.55
70246;SHT30;57637;49.272;8.590;2022-10-15T09:40:02;17.75;93.38
70246;SHT30;57637;49.272;8.590;2022-10-15T09:42:44;17.83;92.97
70246;SHT30;57637;49.272;8.590;2022-10-15T09:45:14;17.81;92.83
70246;SHT30;57637;49.272;8.590;2022-10-15T09:47:40;17.71;93.35
70246;SHT30;57637;49.272;8.590;2022-10-15T09:50:07;17.76;93.45
70246;SHT30;57637;49.272;8.590;2022-10-15T09:58:06;18.19;92.14
70246;SHT30;57637;49.272;8.590;2022-10-15T10:00:54;18.13;91.32
70246;SHT30;57637;49.272;8.590;2022-10-15T10:03:28;18.22;91.90
70246;SHT30;57637;49.272;8.590;2022-10-15T10:06:13;18.32;91.87
70246;SHT30;57637;49.272;8.590;2022-10-15T10:09:13;18.29;91.64
70246;SHT30;57637;49.272;8.590;2022-10-15T10:11:46;18.27;92.04
70246;SHT30;57637;49.272;8.590;2022-10-15T10:14:21;18.14;92.04
70246;SHT30;57637;49.272;8.590;2022-10-15T10:19:31;18.25;91.88
70246;SHT30;57637;49.272;8.590;2022-10-15T10:24:43;18.29;91.80
70246;SHT30;57637;49.272;8.590;2022-10-15T10:27:22;18.29;90.97
70246;SHT30;57637;49.272;8.590;2022-10-15T10:29:53;18.40;90.91
70246;SHT30;57637;49.272;8.590;2022-10-15T10:32:22;18.53;90.79
70246;SHT30;57637;49.272;8.590;2022-10-15T10:34:53;18.74;89.72
70246;SHT30;57637;49.272;8.590;2022-10-15T10:37:19;19.02;89.79
70246;SHT30;57637;49.272;8.590;2022-10-15T10:39:45;19.25;89.49
70246;SHT30;57637;49.272;8.590;2022-10-15T10:44:42;19.69;88.04
70246;SHT30;57637;49.272;8.590;2022-10-15T10:49:49;19.66;86.89
70246;SHT30;57637;49.272;8.590;2022-10-15T11:00:06;19.55;87.48
70246;SHT30;57637;49.272;8.590;2022-10-15T11:02:36;19.72;87.69
70246;SHT30;57637;49.272;8.590;2022-10-15T11:05:05;19.65;87.43
70246;SHT30;57637;49.272;8.590;2022-10-15T11:07:52;19.53;87.87
70246;SHT30;57637;49.272;8.590;2022-10-15T11:10:59;19.35;87.59
70246;SHT30;57637;49.272;8.590;2022-10-15T11:16:38;19.10;87.11
70246;SHT30;57637;49.272;8.590;2022-10-15T11:22:06;18.85;87.22
70246;SHT30;57637;49.272;8.590;2022-10-15T11:41:38;18.43;88.36
70246;SHT30;57637;49.272;8.590;2022-10-15T11:49:58;18.39;88.02
70246;SHT30;57637;49.272;8.590;2022-10-15T11:55:03;18.58;87.60
70246;SHT30;57637;49.272;8.590;2022-10-15T11:57:37;18.53;87.35
70246;SHT30;57637;49.272;8.590;2022-10-15T12:00:54;18.49;87.44
70246;SHT30;57637;49.272;8.590;2022-10-15T12:03:15;18.53;87.10
70246;SHT30;57637;49.272;8.590;2022-10-15T12:05:57;18.47;86.52
70246;SHT30;57637;49.272;8.590;2022-10-15T12:08:33;18.40;86.87
70246;SHT30;57637;49.272;8.590;2022-10-15T12:13:50;18.32;87.29
70246;SHT30;57637;49.272;8.590;2022-10-15T12:22:09;18.20;86.51
70246;SHT30;57637;49.272;8.590;2022-10-15T12:32:39;18.03;86.62
70246;SHT30;57637;49.272;8.590;2022-10-15T12:37:38;17.89;86.79
70246;SHT30;57637;49.272;8.590;2022-10-15T12:43:01;17.99;87.17
70246;SHT30;57637;49.272;8.590;2022-10-15T12:45:39;18.05;87.17
70246;SHT30;57637;49.272;8.590;2022-10-15T12:53:51;18.25;87.10
70246;SHT30;57637;49.272;8.590;2022-10-15T12:56:22;18.29;86.65
70246;SHT30;57637;49.272;8.590;2022-10-15T12:58:50;18.39;86.57
70246;SHT30;57637;49.272;8.590;2022-10-15T13:06:14;18.49;86.45
70246;SHT30;57637;49.272;8.590;2022-10-15T13:08:44;18.47;87.09
70246;SHT30;57637;49.272;8.590;2022-10-15T13:11:20;18.57;87.24
70246;SHT30;57637;49.272;8.590;2022-10-15T13:13:46;18.63;87.30
70246;SHT30;57637;49.272;8.590;2022-10-15T13:16:16;18.74;87.39
70246;SHT30;57637;49.272;8.590;2022-10-15T13:18:46;18.65;87.41
70246;SHT30;57637;49.272;8.590;2022-10-15T13:21:14;18.61;87.22
70246;SHT30;57637;49.272;8.590;2022-10-15T13:23:43;18.63;87.30
70246;SHT30;57637;49.272;8.590;2022-10-15T13:26:18;18.49;87.44
70246;SHT30;57637;49.272;8.590;2022-10-15T13:28:46;18.61;87.17
70246;SHT30;57637;49.272;8.590;2022-10-15T13:33:46;18.63;86.62
70246;SHT30;57637;49.272;8.590;2022-10-15T13:36:22;18.58;86.78
70246;SHT30;57637;49.272;8.590;2022-10-15T13:38:53;18.57;87.00
70246;SHT30;57637;49.272;8.590;2022-10-15T13:41:28;18.54;87.07
70246;SHT30;57637;49.272;8.590;2022-10-15T13:43:57;18.57;86.84
70246;SHT30;57637;49.272;8.590;2022-10-15T13:46:37;18.61;86.52
70246;SHT30;57637;49.272;8.590;2022-10-15T13:49:08;18.61;86.62
70246;SHT30;57637;49.272;8.590;2022-10-15T13:51:40;18.60;86.10
70246;SHT30;57637;49.272;8.590;2022-10-15T13:54:29;18.54;86.30
70246;SHT30;57637;49.272;8.590;2022-10-15T13:56:58;18.50;86.16
70246;SHT30;57637;49.272;8.590;2022-10-15T13:59:26;18.36;86.84
70246;SHT30;57637;49.272;8.590;2022-10-15T14:01:55;18.27;86.98
70246;SHT30;57637;49.272;8.590;2022-10-15T14:04:29;18.17;87.32
70246;SHT30;57637;49.272;8.590;2022-10-15T14:11:59;18.03;88.03
70246;SHT30;57637;49.272;8.590;2022-10-15T14:17:24;18.07;88.46
70246;SHT30;57637;49.272;8.590;2022-10-15T14:19:57;18.06;88.71
70246;SHT30;57637;49.272;8.590;2022-10-15T14:22:27;18.05;88.71
70246;SHT30;57637;49.272;8.590;2022-10-15T14:24:53;17.93;88.83
70246;SHT30;57637;49.272;8.590;2022-10-15T14:27:27;17.89;89.16
70246;SHT30;57637;49.272;8.590;2022-10-15T14:29:54;17.74;89.58
70246;SHT30;57637;49.272;8.590;2022-10-15T14:34:58;17.62;90.32
70246;SHT30;57637;49.272;8.590;2022-10-15T14:37:43;17.46;90.45
70246;SHT30;57637;49.272;8.590;2022-10-15T14:45:41;17.31;91.75
70246;SHT30;57637;49.272;8.590;2022-10-15T14:48:22;17.25;91.87
70246;SHT30;57637;49.272;8.590;2022-10-15T14:50:49;17.18;92.31
70246;SHT30;57637;49.272;8.590;2022-10-15T14:53:23;17.18;92.60
70246;SHT30;57637;49.272;8.590;2022-10-15T14:55:54;17.11;92.75
70246;SHT30;57637;49.272;8.590;2022-10-15T14:58:25;17.06;93.06
70246;SHT30;57637;49.272;8.590;2022-10-15T15:03:25;17.04;93.24
70246;SHT30;57637;49.272;8.590;2022-10-15T15:05:54;17.06;93.24
70246;SHT30;57637;49.272;8.590;2022-10-15T15:08:21;17.08;93.55
70246;SHT30;57637;49.272;8.590;2022-10-15T15:10:47;17.06;93.42
70246;SHT30;57637;49.272;8.590;2022-10-15T15:13:16;17.00;93.47
70246;SHT30;57637;49.272;8.590;2022-10-15T15:15:45;17.00;93.65
70246;SHT30;57637;49.272;8.590;2022-10-15T15:18:10;16.97;93.73
70246;SHT30;57637;49.272;8.590;2022-10-15T15:20:36;16.93;93.80
70246;SHT30;57637;49.272;8.590;2022-10-15T15:23:02;16.94;93.99
70246;SHT30;57637;49.272;8.590;2022-10-15T15:25:29;16.88;94.16
70246;SHT30;57637;49.272;8.590;2022-10-15T15:27:57;16.86;94.27
70246;SHT30;57637;49.272;8.590;2022-10-15T15:30:25;16.84;94.25
70246;SHT30;57637;49.272;8.590;2022-10-15T15:32:52;16.80;94.27
70246;SHT30;57637;49.272;8.590;2022-10-15T15:37:52;16.76;94.59
70246;SHT30;57637;49.272;8.590;2022-10-15T15:40:18;16.69;94.61
70246;SHT30;57637;49.272;8.590;2022-10-15T15:42:44;16.70;94.82
70246;SHT30;57637;49.272;8.590;2022-10-15T15:45:14;16.67;94.87
70246;SHT30;57637;49.272;8.590;2022-10-15T15:47:42;16.63;94.99
70246;SHT30;57637;49.272;8.590;2022-10-15T15:50:08;16.57;95.17
70246;SHT30;57637;49.272;8.590;2022-10-15T15:52:33;16.56;95.28
70246;SHT30;57637;49.272;8.590;2022-10-15T15:54:58;16.55;95.37
70246;SHT30;57637;49.272;8.590;2022-10-15T15:57:24;16.55;95.37
70246;SHT30;57637;49.272;8.590;2022-10-15T15:59:49;16.56;95.36
70246;SHT30;57637;49.272;8.590;2022-10-15T16:02:14;16.53;95.35
70246;SHT30;57637;49.272;8.590;2022-10-15T16:04:41;16.51;95.42
70246;SHT30;57637;49.272;8.590;2022-10-15T16:07:09;16.48;95.44
70246;SHT30;57637;49.272;8.590;2022-10-15T16:09:34;16.45;95.48
70246;SHT30;57637;49.272;8.590;2022-10-15T16:12:00;16.42;95.56
70246;SHT30;57637;49.272;8.590;2022-10-15T16:14:25;16.41;95.52
70246;SHT30;57637;49.272;8.590;2022-10-15T16:16:51;16.42;95.52
70246;SHT30;57637;49.272;8.590;2022-10-15T16:19:16;16.41;95.56
70246;SHT30;57637;49.272;8.590;2022-10-15T16:21:43;16.41;95.62
70246;SHT30;57637;49.272;8.590;2022-10-15T16:24:09;16.39;95.70
70246;SHT30;57637;49.272;8.590;2022-10-15T16:26:34;16.36;95.83
70246;SHT30;57637;49.272;8.590;2022-10-15T16:28:59;16.33;96.00
70246;SHT30;57637;49.272;8.590;2022-10-15T16:31:26;16.33;96.11
70246;SHT30;57637;49.272;8.590;2022-10-15T16:33:56;16.32;96.26
70246;SHT30;57637;49.272;8.590;2022-10-15T16:36:21;16.32;96.31
70246;SHT30;57637;49.272;8.590;2022-10-15T16:38:47;16.29;96.47
70246;SHT30;57637;49.272;8.590;2022-10-15T16:41:13;16.28;96.55
70246;SHT30;57637;49.272;8.590;2022-10-15T16:43:40;16.25;96.74
70246;SHT30;57637;49.272;8.590;2022-10-15T16:46:05;16.23;96.82
70246;SHT30;57637;49.272;8.590;2022-10-15T16:48:31;16.21;96.83
70246;SHT30;57637;49.272;8.590;2022-10-15T16:51:08;16.21;96.96
70246;SHT30;57637;49.272;8.590;2022-10-15T16:53:38;16.22;97.06
70246;SHT30;57637;49.272;8.590;2022-10-15T16:56:07;16.22;97.08
70246;SHT30;57637;49.272;8.590;2022-10-15T16:58:34;16.15;97.10
70246;SHT30;57637;49.272;8.590;2022-10-15T17:01:00;16.15;97.22
70246;SHT30;57637;49.272;8.590;2022-10-15T17:03:27;16.16;97.22
70246;SHT30;57637;49.272;8.590;2022-10-15T17:05:56;16.18;97.32
70246;SHT30;57637;49.272;8.590;2022-10-15T17:08:23;16.16;97.35
70246;SHT30;57637;49.272;8.590;2022-10-15T17:10:50;16.13;97.40
70246;SHT30;57637;49.272;8.590;2022-10-15T17:13:15;16.11;97.37
70246;SHT30;57637;49.272;8.590;2022-10-15T17:15:40;16.11;97.44
70246;SHT30;57637;49.272;8.590;2022-10-15T17:18:06;16.11;97.47
70246;SHT30;57637;49.272;8.590;2022-10-15T17:20:31;16.11;97.47
70246;SHT30;57637;49.272;8.590;2022-10-15T17:22:59;16.11;97.49
70246;SHT30;57637;49.272;8.590;2022-10-15T17:25:25;16.09;97.48
70246;SHT30;57637;49.272;8.590;2022-10-15T17:27:50;16.11;97.47
70246;SHT30;57637;49.272;8.590;2022-10-15T17:30:16;16.12;97.45
70246;SHT30;57637;49.272;8.590;2022-10-15T17:32:42;16.12;97.42
70246;SHT30;57637;49.272;8.590;2022-10-15T17:35:07;16.09;97.42
70246;SHT30;57637;49.272;8.590;2022-10-15T17:37:34;16.11;97.35
70246;SHT30;57637;49.272;8.590;2022-10-15T17:39:59;16.11;97.36
70246;SHT30;57637;49.272;8.590;2022-10-15T17:42:24;16.12;97.31
70246;SHT30;57637;49.272;8.590;2022-10-15T17:44:50;16.13;97.33
70246;SHT30;57637;49.272;8.590;2022-10-15T17:47:15;16.12;97.27
70246;SHT30;57637;49.272;8.590;2022-10-15T17:49:40;16.12;97.26
70246;SHT30;57637;49.272;8.590;2022-10-15T17:52:06;16.15;97.26
70246;SHT30;57637;49.272;8.590;2022-10-15T17:54:32;16.12;97.24
70246;SHT30;57637;49.272;8.590;2022-10-15T17:56:57;16.11;97.26
70246;SHT30;57637;49.272;8.590;2022-10-15T17:59:22;16.13;97.26
70246;SHT30;57637;49.272;8.590;2022-10-15T18:01:48;16.12;97.29
70246;SHT30;57637;49.272;8.590;2022-10-15T18:04:14;16.12;97.27
70246;SHT30;57637;49.272;8.590;2022-10-15T18:06:42;16.12;97.26
70246;SHT30;57637;49.272;8.590;2022-10-15T18:09:08;16.13;97.27
70246;SHT30;57637;49.272;8.590;2022-10-15T18:11:34;16.15;97.21
70246;SHT30;57637;49.272;8.590;2022-10-15T18:14:00;16.16;97.17
70246;SHT30;57637;49.272;8.590;2022-10-15T18:16:26;16.15;97.15
70246;SHT30;57637;49.272;8.590;2022-10-15T18:18:52;16.15;97.16
70246;SHT30;57637;49.272;8.590;2022-10-15T18:21:19;16.16;97.10
70246;SHT30;57637;49.272;8.590;2022-10-15T18:23:45;16.16;97.09
70246;SHT30;57637;49.272;8.590;2022-10-15T18:26:19;16.16;97.06